sensor_id;sensor_type;location;lat;lon;timestamp;temperature;humidity
13960;DHT22;7052;51.050;3.716;2023-02-01T00:00:20;6.80;99.90
13960;DHT22;7052;51.050;3.716;2023-02-01T00:02:47;6.80;99.90
13960;DHT22;7052;51.050;3.716;2023-02-01T00:05:15;6.80;99.90
13960;DHT22;7052;51.050;3.716;2023-02-01T00:07:42;6.80;99.90
13960;DHT22;7052;51.050;3.716;2023-02-01T00:10:10;6.80;99.90
13960;DHT22;7052;51.050;3.716;2023-02-01T00:12:37;6.80;99.90
13960;DHT22;7052;51.050;3.716;2023-02-01T00:15:05;6.70;99.90
13960;DHT22;7052;51.050;3.716;2023-02-01T00:17:35;6.70;99.90
13960;DHT22;7052;51.050;3.716;2023-02-01T00:20:03;6.70;99.90
13960;DHT22;7052;51.050;3.716;2023-02-01T00:22:31;6.60;99.90
13960;DHT22;7052;51.050;3.716;2023-02-01T00:25:01;6.60;99.90
13960;DHT22;7052;51.050;3.716;2023-02-01T00:27:27;6.50;99.90
13960;DHT22;7052;51.050;3.716;2023-02-01T00:29:55;6.50;99.90
13960;DHT22;7052;51.050;3.716;2023-02-01T00:32:23;6.50;99.90
13960;DHT22;7052;51.050;3.716;2023-02-01T00:34:51;6.70;99.90
13960;DHT22;7052;51.050;3.716;2023-02-01T00:37:19;6.40;99.90
13960;DHT22;7052;51.050;3.716;2023-02-01T00:39:48;6.40;99.90
13960;DHT22;7052;51.050;3.716;2023-02-01T00:42:15;6.40;99.90
13960;DHT22;7052;51.050;3.716;2023-02-01T00:44:42;6.30;99.90
13960;DHT22;7052;51.050;3.716;2023-02-01T00:47:09;6.30;99.90
13960;DHT22;7052;51.050;3.716;2023-02-01T00:49:36;6.30;99.90
13960;DHT22;7052;51.050;3.716;2023-02-01T00:52:07;6.30;99.90
13960;DHT22;7052;51.050;3.716;2023-02-01T00:54:34;6.30;99.90
13960;DHT22;7052;51.050;3.716;2023-02-01T00:57:02;6.20;99.90
13960;DHT22;7052;51.050;3.716;2023-02-01T00:59:29;6.20;99.90
13960;DHT22;7052;51.050;3.716;2023-02-01T01:01:59;6.20;99.90
13960;DHT22;7052;51.050;3.716;2023-02-01T01:04:27;6.20;99.90
13960;DHT22;7052;51.050;3.716;2023-02-01T01:06:54;6.10;99.90
13960;DHT22;7052;51.050;3.716;2023-02-01T01:09:22;6.10;99.90
13960;DHT22;7052;51.050;3.716;2023-02-01T01:11:49;6.10;99.90
13960;DHT22;7052;51.050;3.716;2023-02-01T01:14:19;6.10;99.90
13960;DHT22;7052;51.050;3.716;2023-02-01T01:16:50;6.00;99.90
13960;DHT22;7052;51.050;3.716;2023-02-01T01:19:17;6.00;99.90
13960;DHT22;7052;51.050;3.716;2023-02-01T01:21:46;6.00;99.90
13960;DHT22;7052;51.050;3.716;2023-02-01T01:24:14;5.90;99.90
13960;DHT22;7052;51.050;3.716;2023-02-01T01:26:44;5.90;99.90
13960;DHT22;7052;51.050;3.716;2023-02-01T01:29:13;5.90;99.90
13960;DHT22;7052;51.050;3.716;2023-02-01T01:31:40;5.90;99.90
13960;DHT22;7052;51.050;3.716;2023-02-01T01:34:09;5.80;99.90
13960;DHT22;7052;51.050;3.716;2023-02-01T01:36:36;5.80;99.90
13960;DHT22;7052;51.050;3.716;2023-02-01T01:39:04;5.80;99.90
13960;DHT22;7052;51.050;3.716;2023-02-01T01:41:32;5.80;99.90
13960;DHT22;7052;51.050;3.716;2023-02-01T01:44:03;5.80;99.90
13960;DHT22;7052;51.050;3.716;2023-02-01T01:46:32;5.90;99.90
13960;DHT22;7052;51.050;3.716;2023-02-01T01:49:04;5.90;99.90
13960;DHT22;7052;51.050;3.716;2023-02-01T01:51:34;5.80;99.90
13960;DHT22;7052;51.050;3.716;2023-02-01T01:54:05;5.80;99.90
13960;DHT22;7052;51.050;3.716;2023-02-01T01:56:35;5.80;99.90
13960;DHT22;7052;51.050;3.716;2023-02-01T01:59:04;5.80;99.90
13960;DHT22;7052;51.050;3.716;2023-02-01T02:01:32;5.80;99.90
13960;DHT22;7052;51.050;3.716;2023-02-01T02:03:59;5.80;99.90
13960;DHT22;7052;51.050;3.716;2023-02-01T02:06:36;5.80;99.90
13960;DHT22;7052;51.050;3.716;2023-02-01T02:09:04;5.80;99.90
13960;DHT22;7052;51.050;3.716;2023-02-01T02:11:31;5.70;99.90
13960;DHT22;7052;51.050;3.716;2023-02-01T02:13:58;5.70;99.90
13960;DHT22;7052;51.050;3.716;2023-02-01T02:29:22;5.60;99.90
13960;DHT22;7052;51.050;3.716;2023-02-01T02:32:28;5.50;99.90
13960;DHT22;7052;51.050;3.716;2023-02-01T02:35:09;5.50;99.90
13960;DHT22;7052;51.050;3.716;2023-02-01T02:37:43;5.50;99.90
13960;DHT22;7052;51.050;3.716;2023-02-01T02:40:16;5.50;99.90
13960;DHT22;7052;51.050;3.716;2023-02-01T02:42:53;5.60;99.90
13960;DHT22;7052;51.050;3.716;2023-02-01T02:45:43;5.60;99.90
13960;DHT22;7052;51.050;3.716;2023-02-01T02:48:34;5.70;99.90
13960;DHT22;7052;51.050;3.716;2023-02-01T02:51:08;5.70;99.90
13960;DHT22;7052;51.050;3.716;2023-02-01T02:53:59;5.60;99.90
13960;DHT22;7052;51.050;3.716;2023-02-01T02:56:44;5.70;99.90
13960;DHT22;7052;51.050;3.716;2023-02-01T02:59:30;5.70;99.90
13960;DHT22;7052;51.050;3.716;2023-02-01T03:02:17;5.60;99.90
13960;DHT22;7052;51.050;3.716;2023-02-01T03:05:02;5.70;99.90
13960;DHT22;7052;51.050;3.716;2023-02-01T03:08:13;5.60;99.90
13960;DHT22;7052;51.050;3.716;2023-02-01T03:10:48;5.70;99.90
13960;DHT22;7052;51.050;3.716;2023-02-01T03:13:28;5.70;99.90
13960;DHT22;7052;51.050;3.716;2023-02-01T03:16:02;5.70;99.90
13960;DHT22;7052;51.050;3.716;2023-02-01T03:18:36;5.70;99.90
13960;DHT22;7052;51.050;3.716;2023-02-01T03:21:08;5.80;99.90
13960;DHT22;7052;51.050;3.716;2023-02-01T03:23:38;5.80;99.90
13960;DHT22;7052;51.050;3.716;2023-02-01T03:26:09;5.90;99.90
13960;DHT22;7052;51.050;3.716;2023-02-01T03:28:43;5.80;99.90
13960;DHT22;7052;51.050;3.716;2023-02-01T03:31:13;5.90;99.90
13960;DHT22;7052;51.050;3.716;2023-02-01T03:33:40;5.90;99.90
13960;DHT22;7052;51.050;3.716;2023-02-01T03:36:15;5.80;99.90
13960;DHT22;7052;51.050;3.716;2023-02-01T03:38:52;5.80;99.90
13960;DHT22;7052;51.050;3.716;2023-02-01T03:41:27;5.80;99.90
13960;DHT22;7052;51.050;3.716;2023-02-01T03:44:03;5.80;99.90
13960;DHT22;7052;51.050;3.716;2023-02-01T03:46:35;5.80;99.90
13960;DHT22;7052;51.050;3.716;2023-02-01T03:49:05;5.80;99.90
13960;DHT22;7052;51.050;3.716;2023-02-01T03:51:34;5.70;99.90
13960;DHT22;7052;51.050;3.716;2023-02-01T03:54:12;5.70;99.90
13960;DHT22;7052;51.050;3.716;2023-02-01T03:56:44;5.70;99.90
13960;DHT22;7052;51.050;3.716;2023-02-01T03:59:14;5.70;99.90
13960;DHT22;7052;51.050;3.716;2023-02-01T04:01:42;5.60;99.90
13960;DHT22;7052;51.050;3.716;2023-02-01T04:04:09;5.60;99.90
13960;DHT22;7052;51.050;3.716;2023-02-01T04:06:37;5.60;99.90
13960;DHT22;7052;51.050;3.716;2023-02-01T04:09:04;5.50;99.90
13960;DHT22;7052;51.050;3.716;2023-02-01T04:11:33;5.50;99.90
13960;DHT22;7052;51.050;3.716;2023-02-01T04:14:00;5.50;99.90
13960;DHT22;7052;51.050;3.716;2023-02-01T04:16:30;5.40;99.90
13960;DHT22;7052;51.050;3.716;2023-02-01T04:18:57;5.40;99.90
13960;DHT22;7052;51.050;3.716;2023-02-01T04:21:25;5.40;99.90
13960;DHT22;7052;51.050;3.716;2023-02-01T04:23:57;5.40;99.90
13960;DHT22;7052;51.050;3.716;2023-02-01T04:26:25;5.40;99.90
13960;DHT22;7052;51.050;3.716;2023-02-01T04:28:53;5.40;99.90
13960;DHT22;7052;51.050;3.716;2023-02-01T04:31:23;5.40;99.90
13960;DHT22;7052;51.050;3.716;2023-02-01T04:33:53;5.40;99.90
13960;DHT22;7052;51.050;3.716;2023-02-01T04:36:21;5.40;99.90
13960;DHT22;7052;51.050;3.716;2023-02-01T04:38:49;5.30;99.90
13960;DHT22;7052;51.050;3.716;2023-02-01T04:41:16;5.30;99.90
13960;DHT22;7052;51.050;3.716;2023-02-01T04:43:49;5.30;99.90
13960;DHT22;7052;51.050;3.716;2023-02-01T04:46:18;5.30;99.90
13960;DHT22;7052;51.050;3.716;2023-02-01T04:48:46;5.30;99.90
13960;DHT22;7052;51.050;3.716;2023-02-01T04:51:13;5.20;99.90
13960;DHT22;7052;51.050;3.716;2023-02-01T04:53:42;5.40;99.90
13960;DHT22;7052;51.050;3.716;2023-02-01T04:56:09;5.30;99.90
13960;DHT22;7052;51.050;3.716;2023-02-01T04:58:36;5.30;99.90
13960;DHT22;7052;51.050;3.716;2023-02-01T05:01:04;5.30;99.90
13960;DHT22;7052;51.050;3.716;2023-02-01T05:03:35;5.30;99.90
13960;DHT22;7052;51.050;3.716;2023-02-01T05:06:05;5.20;99.90
13960;DHT22;7052;51.050;3.716;2023-02-01T05:08:33;5.20;99.90
13960;DHT22;7052;51.050;3.716;2023-02-01T05:11:02;5.20;99.90
13960;DHT22;7052;51.050;3.716;2023-02-01T05:13:29;5.20;99.90
13960;DHT22;7052;51.050;3.716;2023-02-01T05:16:13;5.20;99.90
13960;DHT22;7052;51.050;3.716;2023-02-01T05:18:49;5.20;99.90
13960;DHT22;7052;51.050;3.716;2023-02-01T05:21:19;5.20;99.90
13960;DHT22;7052;51.050;3.716;2023-02-01T05:23:48;5.20;99.90
13960;DHT22;7052;51.050;3.716;2023-02-01T05:26:34;5.20;99.90
13960;DHT22;7052;51.050;3.716;2023-02-01T05:29:02;5.20;99.90
13960;DHT22;7052;51.050;3.716;2023-02-01T05:31:32;5.20;99.90
13960;DHT22;7052;51.050;3.716;2023-02-01T05:34:01;5.20;99.90
13960;DHT22;7052;51.050;3.716;2023-02-01T05:36:28;5.20;99.90
13960;DHT22;7052;51.050;3.716;2023-02-01T05:39:02;5.20;99.90
13960;DHT22;7052;51.050;3.716;2023-02-01T05:41:29;5.30;99.90
13960;DHT22;7052;51.050;3.716;2023-02-01T05:43:56;5.30;99.90
13960;DHT22;7052;51.050;3.716;2023-02-01T05:46:23;5.30;99.90
13960;DHT22;7052;51.050;3.716;2023-02-01T05:48:54;5.30;99.90
13960;DHT22;7052;51.050;3.716;2023-02-01T05:51:23;5.20;99.90
13960;DHT22;7052;51.050;3.716;2023-02-01T05:53:50;5.20;99.90
13960;DHT22;7052;51.050;3.716;2023-02-01T05:56:17;5.20;99.90
13960;DHT22;7052;51.050;3.716;2023-02-01T05:58:44;5.20;99.90
13960;DHT22;7052;51.050;3.716;2023-02-01T06:01:11;5.20;99.90
13960;DHT22;7052;51.050;3.716;2023-02-01T06:03:39;5.20;99.90
13960;DHT22;7052;51.050;3.716;2023-02-01T06:06:06;5.10;99.90
13960;DHT22;7052;51.050;3.716;2023-02-01T06:08:41;5.10;99.90
13960;DHT22;7052;51.050;3.716;2023-02-01T06:11:08;5.10;99.90
13960;DHT22;7052;51.050;3.716;2023-02-01T06:13:35;5.20;99.90
13960;DHT22;7052;51.050;3.716;2023-02-01T06:16:04;5.20;99.90
13960;DHT22;7052;51.050;3.716;2023-02-01T06:18:33;5.20;99.90
13960;DHT22;7052;51.050;3.716;2023-02-01T06:21:01;5.20;99.90
13960;DHT22;7052;51.050;3.716;2023-02-01T06:23:30;5.20;99.90
13960;DHT22;7052;51.050;3.716;2023-02-01T06:26:03;5.20;99.90
13960;DHT22;7052;51.050;3.716;2023-02-01T06:28:31;5.20;99.90
13960;DHT22;7052;51.050;3.716;2023-02-01T06:31:03;5.20;99.90
13960;DHT22;7052;51.050;3.716;2023-02-01T06:33:32;5.20;99.90
13960;DHT22;7052;51.050;3.716;2023-02-01T06:36:04;5.20;99.90
13960;DHT22;7052;51.050;3.716;2023-02-01T06:38:32;5.10;99.90
13960;DHT22;7052;51.050;3.716;2023-02-01T06:41:05;5.10;99.90
13960;DHT22;7052;51.050;3.716;2023-02-01T06:43:34;5.10;99.90
13960;DHT22;7052;51.050;3.716;2023-02-01T06:46:05;5.10;99.90
13960;DHT22;7052;51.050;3.716;2023-02-01T06:48:34;5.10;99.90
13960;DHT22;7052;51.050;3.716;2023-02-01T06:51:01;5.10;99.90
13960;DHT22;7052;51.050;3.716;2023-02-01T06:53:28;5.10;99.90
13960;DHT22;7052;51.050;3.716;2023-02-01T06:55:57;5.10;99.90
13960;DHT22;7052;51.050;3.716;2023-02-01T06:58:28;5.10;99.90
13960;DHT22;7052;51.050;3.716;2023-02-01T07:00:56;5.10;99.90
13960;DHT22;7052;51.050;3.716;2023-02-01T07:03:23;5.10;99.90
13960;DHT22;7052;51.050;3.716;2023-02-01T07:05:55;5.10;99.90
13960;DHT22;7052;51.050;3.716;2023-02-01T07:08:25;5.10;99.90
13960;DHT22;7052;51.050;3.716;2023-02-01T07:10:54;5.20;99.90
13960;DHT22;7052;51.050;3.716;2023-02-01T07:13:23;5.10;99.90
13960;DHT22;7052;51.050;3.716;2023-02-01T07:15:56;5.10;99.90
13960;DHT22;7052;51.050;3.716;2023-02-01T07:18:24;5.10;99.90
13960;DHT22;7052;51.050;3.716;2023-02-01T07:20:51;5.10;99.90
13960;DHT22;7052;51.050;3.716;2023-02-01T07:23:18;5.10;99.90
13960;DHT22;7052;51.050;3.716;2023-02-01T07:25:54;5.10;99.90
13960;DHT22;7052;51.050;3.716;2023-02-01T07:28:22;5.10;99.90
13960;DHT22;7052;51.050;3.716;2023-02-01T07:30:51;5.10;99.90
13960;DHT22;7052;51.050;3.716;2023-02-01T07:33:20;5.10;99.90
13960;DHT22;7052;51.050;3.716;2023-02-01T07:35:48;5.10;99.90
13960;DHT22;7052;51.050;3.716;2023-02-01T07:38:15;5.10;99.90
13960;DHT22;7052;51.050;3.716;2023-02-01T07:40:43;5.10;99.90
13960;DHT22;7052;51.050;3.716;2023-02-01T07:43:12;5.10;99.90
13960;DHT22;7052;51.050;3.716;2023-02-01T07:45:39;5.30;99.90
13960;DHT22;7052;51.050;3.716;2023-02-01T07:48:08;5.10;99.90
13960;DHT22;7052;51.050;3.716;2023-02-01T07:50:35;5.10;99.90
13960;DHT22;7052;51.050;3.716;2023-02-01T07:53:06;5.20;99.90
13960;DHT22;7052;51.050;3.716;2023-02-01T07:55:32;5.10;99.90
13960;DHT22;7052;51.050;3.716;2023-02-01T07:58:00;5.30;99.90
13960;DHT22;7052;51.050;3.716;2023-02-01T08:00:27;5.40;99.90
13960;DHT22;7052;51.050;3.716;2023-02-01T08:03:13;5.50;99.90
13960;DHT22;7052;51.050;3.716;2023-02-01T08:05:39;5.60;99.90
13960;DHT22;7052;51.050;3.716;2023-02-01T08:08:06;5.60;99.90
13960;DHT22;7052;51.050;3.716;2023-02-01T08:10:34;5.60;99.90
13960;DHT22;7052;51.050;3.716;2023-02-01T08:13:02;5.70;99.90
13960;DHT22;7052;51.050;3.716;2023-02-01T08:15:29;5.70;99.90
13960;DHT22;7052;51.050;3.716;2023-02-01T08:17:57;5.80;99.90
13960;DHT22;7052;51.050;3.716;2023-02-01T08:20:26;5.80;99.90
13960;DHT22;7052;51.050;3.716;2023-02-01T08:23:03;5.90;99.90
13960;DHT22;7052;51.050;3.716;2023-02-01T08:25:34;5.90;99.90
13960;DHT22;7052;51.050;3.716;2023-02-01T08:28:05;5.90;99.90
13960;DHT22;7052;51.050;3.716;2023-02-01T08:30:37;6.00;99.90
13960;DHT22;7052;51.050;3.716;2023-02-01T08:33:05;6.10;99.90
13960;DHT22;7052;51.050;3.716;2023-02-01T08:35:34;6.10;99.90
13960;DHT22;7052;51.050;3.716;2023-02-01T08:38:02;6.10;99.90
13960;DHT22;7052;51.050;3.716;2023-02-01T08:40:29;6.10;99.90
13960;DHT22;7052;51.050;3.716;2023-02-01T08:42:57;6.10;99.90
13960;DHT22;7052;51.050;3.716;2023-02-01T08:45:27;6.10;99.90
13960;DHT22;7052;51.050;3.716;2023-02-01T08:47:55;6.10;99.90
13960;DHT22;7052;51.050;3.716;2023-02-01T08:50:23;6.20;99.90
13960;DHT22;7052;51.050;3.716;2023-02-01T08:52:55;6.20;99.90
13960;DHT22;7052;51.050;3.716;2023-02-01T08:55:25;6.30;99.90
13960;DHT22;7052;51.050;3.716;2023-02-01T08:57:52;6.40;99.90
13960;DHT22;7052;51.050;3.716;2023-02-01T09:00:19;6.50;99.90
13960;DHT22;7052;51.050;3.716;2023-02-01T09:02:47;6.60;99.90
13960;DHT22;7052;51.050;3.716;2023-02-01T09:05:16;6.80;99.90
13960;DHT22;7052;51.050;3.716;2023-02-01T09:07:47;7.00;99.90
13960;DHT22;7052;51.050;3.716;2023-02-01T09:10:16;7.00;99.90
13960;DHT22;7052;51.050;3.716;2023-02-01T09:12:43;7.10;99.90
13960;DHT22;7052;51.050;3.716;2023-02-01T09:15:10;7.30;99.90
13960;DHT22;7052;51.050;3.716;2023-02-01T09:17:37;7.40;99.90
13960;DHT22;7052;51.050;3.716;2023-02-01T09:20:08;7.40;99.90
13960;DHT22;7052;51.050;3.716;2023-02-01T09:22:36;7.30;99.90
13960;DHT22;7052;51.050;3.716;2023-02-01T09:25:04;7.40;99.90
13960;DHT22;7052;51.050;3.716;2023-02-01T09:27:32;7.40;99.90
13960;DHT22;7052;51.050;3.716;2023-02-01T09:29:59;7.50;99.90
13960;DHT22;7052;51.050;3.716;2023-02-01T09:32:27;7.50;99.90
13960;DHT22;7052;51.050;3.716;2023-02-01T09:34:54;7.50;99.90
13960;DHT22;7052;51.050;3.716;2023-02-01T09:37:23;7.60;99.90
13960;DHT22;7052;51.050;3.716;2023-02-01T09:39:52;7.70;99.90
13960;DHT22;7052;51.050;3.716;2023-02-01T09:42:48;7.70;99.90
13960;DHT22;7052;51.050;3.716;2023-02-01T09:45:24;7.70;99.90
13960;DHT22;7052;51.050;3.716;2023-02-01T09:47:59;7.90;99.90
13960;DHT22;7052;51.050;3.716;2023-02-01T09:50:35;7.80;99.90
13960;DHT22;7052;51.050;3.716;2023-02-01T09:53:05;7.90;99.90
13960;DHT22;7052;51.050;3.716;2023-02-01T09:55:35;7.80;99.90
13960;DHT22;7052;51.050;3.716;2023-02-01T09:58:07;7.90;99.90
13960;DHT22;7052;51.050;3.716;2023-02-01T10:00:41;8.00;99.90
13960;DHT22;7052;51.050;3.716;2023-02-01T10:03:14;8.00;99.90
13960;DHT22;7052;51.050;3.716;2023-02-01T10:06:02;8.10;99.90
13960;DHT22;7052;51.050;3.716;2023-02-01T10:08:48;8.10;99.90
13960;DHT22;7052;51.050;3.716;2023-02-01T10:11:26;8.00;99.90
13960;DHT22;7052;51.050;3.716;2023-02-01T10:14:04;8.10;99.90
13960;DHT22;7052;51.050;3.716;2023-02-01T10:16:44;8.20;99.90
13960;DHT22;7052;51.050;3.716;2023-02-01T10:19:24;8.30;99.90
13960;DHT22;7052;51.050;3.716;2023-02-01T10:22:00;8.20;99.90
13960;DHT22;7052;51.050;3.716;2023-02-01T10:24:42;8.30;99.90
13960;DHT22;7052;51.050;3.716;2023-02-01T10:27:16;8.30;99.90
13960;DHT22;7052;51.050;3.716;2023-02-01T10:29:49;8.20;99.90
13960;DHT22;7052;51.050;3.716;2023-02-01T10:32:23;8.20;99.90
13960;DHT22;7052;51.050;3.716;2023-02-01T10:34:56;8.20;99.90
13960;DHT22;7052;51.050;3.716;2023-02-01T10:37:28;8.10;99.90
13960;DHT22;7052;51.050;3.716;2023-02-01T10:39:59;8.30;99.90
13960;DHT22;7052;51.050;3.716;2023-02-01T10:42:37;8.30;99.90
13960;DHT22;7052;51.050;3.716;2023-02-01T10:45:14;8.40;99.90
13960;DHT22;7052;51.050;3.716;2023-02-01T10:47:45;8.50;99.90
13960;DHT22;7052;51.050;3.716;2023-02-01T10:50:22;8.50;99.90
13960;DHT22;7052;51.050;3.716;2023-02-01T10:52:57;8.60;99.90
13960;DHT22;7052;51.050;3.716;2023-02-01T10:55:30;8.60;99.90
13960;DHT22;7052;51.050;3.716;2023-02-01T10:58:00;8.70;99.90
13960;DHT22;7052;51.050;3.716;2023-02-01T11:00:37;8.90;99.90
13960;DHT22;7052;51.050;3.716;2023-02-01T11:03:37;9.00;99.90
13960;DHT22;7052;51.050;3.716;2023-02-01T11:06:24;9.00;99.90
13960;DHT22;7052;51.050;3.716;2023-02-01T11:08:52;9.20;99.90
13960;DHT22;7052;51.050;3.716;2023-02-01T11:11:20;9.40;99.90
13960;DHT22;7052;51.050;3.716;2023-02-01T11:13:54;9.40;99.90
13960;DHT22;7052;51.050;3.716;2023-02-01T11:16:34;9.60;99.90
13960;DHT22;7052;51.050;3.716;2023-02-01T11:19:02;9.70;99.90
13960;DHT22;7052;51.050;3.716;2023-02-01T11:21:31;9.80;99.90
13960;DHT22;7052;51.050;3.716;2023-02-01T11:24:01;10.00;99.90
13960;DHT22;7052;51.050;3.716;2023-02-01T11:26:32;10.00;99.90
13960;DHT22;7052;51.050;3.716;2023-02-01T11:29:03;10.10;99.90
13960;DHT22;7052;51.050;3.716;2023-02-01T11:31:36;10.00;99.90
13960;DHT22;7052;51.050;3.716;2023-02-01T11:34:16;10.00;99.90
13960;DHT22;7052;51.050;3.716;2023-02-01T11:36:48;10.00;99.90
13960;DHT22;7052;51.050;3.716;2023-02-01T11:39:26;10.00;99.90
13960;DHT22;7052;51.050;3.716;2023-02-01T11:42:00;10.00;99.90
13960;DHT22;7052;51.050;3.716;2023-02-01T11:44:32;10.00;99.90
13960;DHT22;7052;51.050;3.716;2023-02-01T11:47:21;10.00;99.90
13960;DHT22;7052;51.050;3.716;2023-02-01T11:49:49;10.10;99.90
13960;DHT22;7052;51.050;3.716;2023-02-01T11:52:26;10.00;99.90
13960;DHT22;7052;51.050;3.716;2023-02-01T11:55:10;10.00;99.90
13960;DHT22;7052;51.050;3.716;2023-02-01T11:57:55;10.00;99.90
13960;DHT22;7052;51.050;3.716;2023-02-01T12:00:40;9.90;99.90
13960;DHT22;7052;51.050;3.716;2023-02-01T12:03:41;10.00;99.90
13960;DHT22;7052;51.050;3.716;2023-02-01T12:06:18;10.00;99.90
13960;DHT22;7052;51.050;3.716;2023-02-01T12:11:51;10.10;99.90
13960;DHT22;7052;51.050;3.716;2023-02-01T12:14:29;10.20;99.90
13960;DHT22;7052;51.050;3.716;2023-02-01T12:17:33;10.30;99.90
13960;DHT22;7052;51.050;3.716;2023-02-01T12:20:28;10.30;99.90
13960;DHT22;7052;51.050;3.716;2023-02-01T12:23:18;10.40;99.90
13960;DHT22;7052;51.050;3.716;2023-02-01T12:26:04;10.60;99.90
13960;DHT22;7052;51.050;3.716;2023-02-01T12:29:00;10.50;99.80
13960;DHT22;7052;51.050;3.716;2023-02-01T12:31:50;10.60;99.10
13960;DHT22;7052;51.050;3.716;2023-02-01T12:40:26;10.50;99.20
13960;DHT22;7052;51.050;3.716;2023-02-01T12:42:59;10.50;99.00
13960;DHT22;7052;51.050;3.716;2023-02-01T12:45:43;10.40;99.20
13960;DHT22;7052;51.050;3.716;2023-02-01T12:48:25;10.30;99.90
13960;DHT22;7052;51.050;3.716;2023-02-01T12:50:54;10.20;99.90
13960;DHT22;7052;51.050;3.716;2023-02-01T12:53:28;10.30;99.90
13960;DHT22;7052;51.050;3.716;2023-02-01T12:55:58;10.20;99.90
13960;DHT22;7052;51.050;3.716;2023-02-01T12:58:44;10.20;99.90
13960;DHT22;7052;51.050;3.716;2023-02-01T13:01:15;10.30;99.90
13960;DHT22;7052;51.050;3.716;2023-02-01T13:04:01;10.30;99.90
13960;DHT22;7052;51.050;3.716;2023-02-01T13:06:36;10.30;99.90
13960;DHT22;7052;51.050;3.716;2023-02-01T13:09:09;10.40;99.90
13960;DHT22;7052;51.050;3.716;2023-02-01T13:11:43;10.30;99.90
13960;DHT22;7052;51.050;3.716;2023-02-01T13:14:19;10.40;99.90
13960;DHT22;7052;51.050;3.716;2023-02-01T13:16:52;10.30;99.90
13960;DHT22;7052;51.050;3.716;2023-02-01T13:19:22;10.50;99.80
13960;DHT22;7052;51.050;3.716;2023-02-01T13:21:56;10.50;99.90
13960;DHT22;7052;51.050;3.716;2023-02-01T13:24:33;10.50;99.50
13960;DHT22;7052;51.050;3.716;2023-02-01T13:27:04;10.50;99.70
13960;DHT22;7052;51.050;3.716;2023-02-01T13:29:33;10.50;99.70
13960;DHT22;7052;51.050;3.716;2023-02-01T13:32:27;10.50;99.50
13960;DHT22;7052;51.050;3.716;2023-02-01T13:35:18;10.50;99.50
13960;DHT22;7052;51.050;3.716;2023-02-01T13:38:12;10.70;99.50
13960;DHT22;7052;51.050;3.716;2023-02-01T13:40:55;10.70;99.40
13960;DHT22;7052;51.050;3.716;2023-02-01T13:43:39;10.80;98.90
13960;DHT22;7052;51.050;3.716;2023-02-01T13:46:10;10.80;98.80
13960;DHT22;7052;51.050;3.716;2023-02-01T13:48:47;10.90;98.80
13960;DHT22;7052;51.050;3.716;2023-02-01T13:51:16;11.00;98.50
13960;DHT22;7052;51.050;3.716;2023-02-01T13:53:48;11.00;98.00
13960;DHT22;7052;51.050;3.716;2023-02-01T13:56:18;11.10;98.00
13960;DHT22;7052;51.050;3.716;2023-02-01T13:58:47;11.10;98.10
13960;DHT22;7052;51.050;3.716;2023-02-01T14:01:42;11.10;97.90
13960;DHT22;7052;51.050;3.716;2023-02-01T14:07:19;10.90;98.90
13960;DHT22;7052;51.050;3.716;2023-02-01T14:09:46;10.80;99.30
13960;DHT22;7052;51.050;3.716;2023-02-01T14:12:48;10.90;99.20
13960;DHT22;7052;51.050;3.716;2023-02-01T14:15:24;10.70;99.30
13960;DHT22;7052;51.050;3.716;2023-02-01T14:17:52;10.60;99.90
13960;DHT22;7052;51.050;3.716;2023-02-01T14:20:46;10.60;99.90
13960;DHT22;7052;51.050;3.716;2023-02-01T14:23:37;10.50;99.90
13960;DHT22;7052;51.050;3.716;2023-02-01T14:26:19;10.40;99.90
13960;DHT22;7052;51.050;3.716;2023-02-01T14:29:02;10.40;99.90
13960;DHT22;7052;51.050;3.716;2023-02-01T14:31:39;10.40;99.90
13960;DHT22;7052;51.050;3.716;2023-02-01T14:34:17;10.30;99.90
13960;DHT22;7052;51.050;3.716;2023-02-01T14:36:52;10.20;99.90
13960;DHT22;7052;51.050;3.716;2023-02-01T14:39:36;10.20;99.90
13960;DHT22;7052;51.050;3.716;2023-02-01T14:42:14;10.20;99.90
13960;DHT22;7052;51.050;3.716;2023-02-01T14:51:13;10.00;99.90
13960;DHT22;7052;51.050;3.716;2023-02-01T14:53:42;9.90;99.90
13960;DHT22;7052;51.050;3.716;2023-02-01T14:56:13;9.90;99.90
13960;DHT22;7052;51.050;3.716;2023-02-01T14:58:44;9.90;99.90
13960;DHT22;7052;51.050;3.716;2023-02-01T15:01:18;9.80;99.90
13960;DHT22;7052;51.050;3.716;2023-02-01T15:03:58;9.70;99.90
13960;DHT22;7052;51.050;3.716;2023-02-01T15:06:36;9.80;99.90
13960;DHT22;7052;51.050;3.716;2023-02-01T15:09:11;9.70;99.90
13960;DHT22;7052;51.050;3.716;2023-02-01T15:11:57;9.60;99.90
13960;DHT22;7052;51.050;3.716;2023-02-01T15:14:25;9.50;99.90
13960;DHT22;7052;51.050;3.716;2023-02-01T15:16:52;9.60;99.90
13960;DHT22;7052;51.050;3.716;2023-02-01T15:19:23;9.50;99.90
13960;DHT22;7052;51.050;3.716;2023-02-01T15:21:54;9.50;99.90
13960;DHT22;7052;51.050;3.716;2023-02-01T15:24:24;9.50;99.90
13960;DHT22;7052;51.050;3.716;2023-02-01T15:26:53;9.50;99.90
13960;DHT22;7052;51.050;3.716;2023-02-01T15:29:21;9.50;99.90
13960;DHT22;7052;51.050;3.716;2023-02-01T15:31:52;9.50;99.90
13960;DHT22;7052;51.050;3.716;2023-02-01T15:34:22;9.50;99.90
13960;DHT22;7052;51.050;3.716;2023-02-01T15:36:49;9.50;99.90
13960;DHT22;7052;51.050;3.716;2023-02-01T15:39:23;9.40;99.90
13960;DHT22;7052;51.050;3.716;2023-02-01T15:41:54;9.50;99.90
13960;DHT22;7052;51.050;3.716;2023-02-01T15:44:31;9.40;99.90
13960;DHT22;7052;51.050;3.716;2023-02-01T15:47:08;9.40;99.90
13960;DHT22;7052;51.050;3.716;2023-02-01T15:49:39;9.30;99.90
13960;DHT22;7052;51.050;3.716;2023-02-01T15:52:27;9.40;99.90
13960;DHT22;7052;51.050;3.716;2023-02-01T15:55:18;9.40;99.90
13960;DHT22;7052;51.050;3.716;2023-02-01T15:57:48;9.30;99.90
13960;DHT22;7052;51.050;3.716;2023-02-01T16:00:22;9.20;99.90
13960;DHT22;7052;51.050;3.716;2023-02-01T16:02:54;9.30;99.90
13960;DHT22;7052;51.050;3.716;2023-02-01T16:05:45;9.30;99.90
13960;DHT22;7052;51.050;3.716;2023-02-01T16:08:13;9.20;99.90
13960;DHT22;7052;51.050;3.716;2023-02-01T16:11:15;9.10;99.90
13960;DHT22;7052;51.050;3.716;2023-02-01T16:13:56;9.20;99.90
13960;DHT22;7052;51.050;3.716;2023-02-01T16:16:24;9.10;99.90
13960;DHT22;7052;51.050;3.716;2023-02-01T16:18:53;9.10;99.90
13960;DHT22;7052;51.050;3.716;2023-02-01T16:21:20;9.00;99.90
13960;DHT22;7052;51.050;3.716;2023-02-01T16:23:49;9.10;99.90
13960;DHT22;7052;51.050;3.716;2023-02-01T16:26:23;9.00;99.90
13960;DHT22;7052;51.050;3.716;2023-02-01T16:28:55;9.00;99.90
13960;DHT22;7052;51.050;3.716;2023-02-01T16:31:26;9.00;99.90
13960;DHT22;7052;51.050;3.716;2023-02-01T16:33:58;9.00;99.90
13960;DHT22;7052;51.050;3.716;2023-02-01T16:36:27;8.90;99.90
13960;DHT22;7052;51.050;3.716;2023-02-01T16:38:55;8.90;99.90
13960;DHT22;7052;51.050;3.716;2023-02-01T16:41:26;8.90;99.90
13960;DHT22;7052;51.050;3.716;2023-02-01T16:43:55;8.90;99.90
13960;DHT22;7052;51.050;3.716;2023-02-01T16:46:24;8.80;99.90
13960;DHT22;7052;51.050;3.716;2023-02-01T16:48:53;8.90;99.90
13960;DHT22;7052;51.050;3.716;2023-02-01T16:51:28;8.80;99.90
13960;DHT22;7052;51.050;3.716;2023-02-01T16:53:57;8.80;99.90
13960;DHT22;7052;51.050;3.716;2023-02-01T16:56:33;8.80;99.90
13960;DHT22;7052;51.050;3.716;2023-02-01T16:59:08;8.70;99.90
13960;DHT22;7052;51.050;3.716;2023-02-01T17:01:36;8.70;99.90
13960;DHT22;7052;51.050;3.716;2023-02-01T17:04:16;8.70;99.90
13960;DHT22;7052;51.050;3.716;2023-02-01T17:06:46;8.70;99.90